sensor_id;sensor_type;location;lat;lon;timestamp;P1;durP1;ratioP1;P2;durP2;ratioP2
2656;SDS011;1338;48.176;11.792;2023-07-30T00:00:19;2.53;;;2.33;;
2656;SDS011;1338;48.176;11.792;2023-07-30T00:02:47;2.93;;;2.40;;
2656;SDS011;1338;48.176;11.792;2023-07-30T00:05:16;2.50;;;2.30;;
2656;SDS011;1338;48.176;11.792;2023-07-30T00:07:45;3.13;;;2.83;;
2656;SDS011;1338;48.176;11.792;2023-07-30T00:10:13;3.20;;;2.90;;
2656;SDS011;1338;48.176;11.792;2023-07-30T00:12:41;2.50;;;2.30;;
2656;SDS011;1338;48.176;11.792;2023-07-30T00:15:11;2.83;;;2.63;;
2656;SDS011;1338;48.176;11.792;2023-07-30T00:17:40;2.70;;;2.50;;
2656;SDS011;1338;48.176;11.792;2023-07-30T00:20:09;2.50;;;2.13;;
2656;SDS011;1338;48.176;11.792;2023-07-30T00:22:37;2.53;;;2.33;;
2656;SDS011;1338;48.176;11.792;2023-07-30T00:25:06;2.70;;;2.50;;
2656;SDS011;1338;48.176;11.792;2023-07-30T00:27:35;3.13;;;2.90;;
2656;SDS011;1338;48.176;11.792;2023-07-30T00:30:04;3.10;;;2.63;;
2656;SDS011;1338;48.176;11.792;2023-07-30T00:32:34;2.60;;;2.40;;
2656;SDS011;1338;48.176;11.792;2023-07-30T00:35:10;2.80;;;2.60;;
2656;SDS011;1338;48.176;11.792;2023-07-30T00:37:39;2.80;;;2.60;;
2656;SDS011;1338;48.176;11.792;2023-07-30T00:40:07;2.57;;;2.37;;
2656;SDS011;1338;48.176;11.792;2023-07-30T00:42:36;2.90;;;2.70;;
2656;SDS011;1338;48.176;11.792;2023-07-30T00:45:06;2.60;;;2.40;;
2656;SDS011;1338;48.176;11.792;2023-07-30T00:47:36;2.80;;;2.60;;
2656;SDS011;1338;48.176;11.792;2023-07-30T00:50:06;2.60;;;2.40;;
2656;SDS011;1338;48.176;11.792;2023-07-30T00:52:38;2.70;;;2.50;;
2656;SDS011;1338;48.176;11.792;2023-07-30T00:55:10;2.83;;;2.63;;
2656;SDS011;1338;48.176;11.792;2023-07-30T00:57:44;2.80;;;2.60;;
2656;SDS011;1338;48.176;11.792;2023-07-30T01:00:13;2.27;;;2.13;;
2656;SDS011;1338;48.176;11.792;2023-07-30T01:02:43;2.60;;;2.40;;
2656;SDS011;1338;48.176;11.792;2023-07-30T01:05:11;2.70;;;2.50;;
2656;SDS011;1338;48.176;11.792;2023-07-30T01:07:40;2.90;;;2.70;;
2656;SDS011;1338;48.176;11.792;2023-07-30T01:10:08;2.73;;;2.53;;
2656;SDS011;1338;48.176;11.792;2023-07-30T01:12:37;2.63;;;2.43;;
2656;SDS011;1338;48.176;11.792;2023-07-30T01:15:07;2.63;;;2.43;;
2656;SDS011;1338;48.176;11.792;2023-07-30T01:17:36;2.80;;;2.60;;
2656;SDS011;1338;48.176;11.792;2023-07-30T01:20:07;2.50;;;2.30;;
2656;SDS011;1338;48.176;11.792;2023-07-30T01:22:37;2.60;;;2.40;;
2656;SDS011;1338;48.176;11.792;2023-07-30T01:25:06;2.70;;;2.50;;
2656;SDS011;1338;48.176;11.792;2023-07-30T01:27:36;2.60;;;2.40;;
2656;SDS011;1338;48.176;11.792;2023-07-30T01:30:09;3.93;;;3.63;;
2656;SDS011;1338;48.176;11.792;2023-07-30T01:32:44;2.63;;;2.43;;
2656;SDS011;1338;48.176;11.792;2023-07-30T01:35:16;2.70;;;2.50;;
2656;SDS011;1338;48.176;11.792;2023-07-30T01:37:47;2.60;;;2.40;;
2656;SDS011;1338;48.176;11.792;2023-07-30T01:40:16;2.60;;;2.30;;
2656;SDS011;1338;48.176;11.792;2023-07-30T01:42:45;2.83;;;2.63;;
2656;SDS011;1338;48.176;11.792;2023-07-30T01:45:15;2.43;;;2.23;;
2656;SDS011;1338;48.176;11.792;2023-07-30T01:47:43;2.30;;;2.00;;
2656;SDS011;1338;48.176;11.792;2023-07-30T01:50:12;2.60;;;2.40;;
2656;SDS011;1338;48.176;11.792;2023-07-30T01:52:40;2.60;;;2.40;;
2656;SDS011;1338;48.176;11.792;2023-07-30T01:55:10;2.70;;;2.50;;
2656;SDS011;1338;48.176;11.792;2023-07-30T01:57:38;2.10;;;2.00;;
2656;SDS011;1338;48.176;11.792;2023-07-30T02:00:06;3.00;;;2.80;;
2656;SDS011;1338;48.176;11.792;2023-07-30T02:02:35;2.60;;;2.40;;
2656;SDS011;1338;48.176;11.792;2023-07-30T02:05:03;2.30;;;2.20;;
2656;SDS011;1338;48.176;11.792;2023-07-30T02:07:32;2.63;;;2.43;;
2656;SDS011;1338;48.176;11.792;2023-07-30T02:09:59;2.37;;;2.17;;
2656;SDS011;1338;48.176;11.792;2023-07-30T02:12:29;2.47;;;2.27;;
2656;SDS011;1338;48.176;11.792;2023-07-30T02:17:46;2.40;;;2.20;;
2656;SDS011;1338;48.176;11.792;2023-07-30T02:20:15;2.50;;;2.30;;
2656;SDS011;1338;48.176;11.792;2023-07-30T02:22:43;2.70;;;2.50;;
2656;SDS011;1338;48.176;11.792;2023-07-30T02:25:11;2.80;;;2.60;;
2656;SDS011;1338;48.176;11.792;2023-07-30T02:27:40;2.60;;;2.40;;
2656;SDS011;1338;48.176;11.792;2023-07-30T02:30:09;2.60;;;2.40;;
2656;SDS011;1338;48.176;11.792;2023-07-30T02:32:37;2.80;;;2.60;;
2656;SDS011;1338;48.176;11.792;2023-07-30T02:35:06;2.70;;;2.50;;
2656;SDS011;1338;48.176;11.792;2023-07-30T02:37:34;3.00;;;2.80;;
2656;SDS011;1338;48.176;11.792;2023-07-30T02:40:02;3.30;;;3.10;;
2656;SDS011;1338;48.176;11.792;2023-07-30T02:42:31;2.87;;;2.67;;
2656;SDS011;1338;48.176;11.792;2023-07-30T02:45:01;3.33;;;3.10;;
2656;SDS011;1338;48.176;11.792;2023-07-30T02:47:29;3.37;;;3.07;;
2656;SDS011;1338;48.176;11.792;2023-07-30T02:49:57;3.13;;;2.90;;
2656;SDS011;1338;48.176;11.792;2023-07-30T02:52:25;3.03;;;2.73;;
2656;SDS011;1338;48.176;11.792;2023-07-30T02:54:53;3.30;;;3.00;;
2656;SDS011;1338;48.176;11.792;2023-07-30T02:57:22;3.60;;;3.30;;
2656;SDS011;1338;48.176;11.792;2023-07-30T02:59:50;3.10;;;2.80;;
2656;SDS011;1338;48.176;11.792;2023-07-30T03:02:19;3.10;;;2.80;;
2656;SDS011;1338;48.176;11.792;2023-07-30T03:04:47;3.63;;;3.33;;
2656;SDS011;1338;48.176;11.792;2023-07-30T03:07:16;3.53;;;3.20;;
2656;SDS011;1338;48.176;11.792;2023-07-30T03:09:45;3.33;;;3.03;;
2656;SDS011;1338;48.176;11.792;2023-07-30T03:12:13;3.40;;;3.10;;
2656;SDS011;1338;48.176;11.792;2023-07-30T03:14:41;3.97;;;3.00;;
2656;SDS011;1338;48.176;11.792;2023-07-30T03:17:09;3.27;;;3.03;;
2656;SDS011;1338;48.176;11.792;2023-07-30T03:19:38;3.37;;;3.07;;
2656;SDS011;1338;48.176;11.792;2023-07-30T03:22:07;3.23;;;3.03;;
2656;SDS011;1338;48.176;11.792;2023-07-30T03:24:35;3.47;;;3.17;;
2656;SDS011;1338;48.176;11.792;2023-07-30T03:27:03;3.33;;;3.03;;
2656;SDS011;1338;48.176;11.792;2023-07-30T03:29:32;3.53;;;2.90;;
2656;SDS011;1338;48.176;11.792;2023-07-30T03:32:00;3.50;;;3.20;;
2656;SDS011;1338;48.176;11.792;2023-07-30T03:34:28;3.40;;;3.10;;
2656;SDS011;1338;48.176;11.792;2023-07-30T03:36:59;3.80;;;3.20;;
2656;SDS011;1338;48.176;11.792;2023-07-30T03:39:27;3.70;;;3.40;;
2656;SDS011;1338;48.176;11.792;2023-07-30T03:41:55;3.90;;;3.60;;
2656;SDS011;1338;48.176;11.792;2023-07-30T03:44:23;3.87;;;3.57;;
2656;SDS011;1338;48.176;11.792;2023-07-30T03:46:52;3.47;;;3.17;;
2656;SDS011;1338;48.176;11.792;2023-07-30T03:49:20;3.43;;;3.13;;
2656;SDS011;1338;48.176;11.792;2023-07-30T03:51:48;3.90;;;3.60;;
2656;SDS011;1338;48.176;11.792;2023-07-30T03:54:18;3.93;;;3.63;;
2656;SDS011;1338;48.176;11.792;2023-07-30T03:56:45;3.93;;;3.60;;
2656;SDS011;1338;48.176;11.792;2023-07-30T03:59:13;3.57;;;3.37;;
2656;SDS011;1338;48.176;11.792;2023-07-30T04:01:42;3.73;;;3.43;;
2656;SDS011;1338;48.176;11.792;2023-07-30T04:04:10;3.97;;;3.63;;
2656;SDS011;1338;48.176;11.792;2023-07-30T04:06:38;4.07;;;3.77;;
2656;SDS011;1338;48.176;11.792;2023-07-30T04:09:06;3.50;;;3.17;;
2656;SDS011;1338;48.176;11.792;2023-07-30T04:11:38;3.93;;;3.63;;
2656;SDS011;1338;48.176;11.792;2023-07-30T04:14:06;5.77;;;5.20;;
2656;SDS011;1338;48.176;11.792;2023-07-30T04:16:35;4.17;;;3.80;;
2656;SDS011;1338;48.176;11.792;2023-07-30T04:19:03;4.07;;;3.77;;
2656;SDS011;1338;48.176;11.792;2023-07-30T04:21:31;3.70;;;3.40;;
2656;SDS011;1338;48.176;11.792;2023-07-30T04:24:00;4.07;;;3.67;;
2656;SDS011;1338;48.176;11.792;2023-07-30T04:26:28;3.93;;;3.60;;
2656;SDS011;1338;48.176;11.792;2023-07-30T04:28:57;3.53;;;3.23;;
2656;SDS011;1338;48.176;11.792;2023-07-30T04:31:25;3.47;;;3.17;;
2656;SDS011;1338;48.176;11.792;2023-07-30T04:33:53;3.80;;;3.50;;
2656;SDS011;1338;48.176;11.792;2023-07-30T04:36:21;4.73;;;4.33;;
2656;SDS011;1338;48.176;11.792;2023-07-30T04:38:50;3.80;;;3.50;;
2656;SDS011;1338;48.176;11.792;2023-07-30T04:41:20;3.93;;;3.63;;
2656;SDS011;1338;48.176;11.792;2023-07-30T04:43:53;4.20;;;3.90;;
2656;SDS011;1338;48.176;11.792;2023-07-30T04:46:24;6.00;;;3.70;;
2656;SDS011;1338;48.176;11.792;2023-07-30T04:48:52;4.53;;;3.50;;
2656;SDS011;1338;48.176;11.792;2023-07-30T04:51:20;3.87;;;3.57;;
2656;SDS011;1338;48.176;11.792;2023-07-30T04:53:48;4.70;;;4.30;;
2656;SDS011;1338;48.176;11.792;2023-07-30T04:56:16;4.30;;;4.00;;
2656;SDS011;1338;48.176;11.792;2023-07-30T04:58:44;3.83;;;3.53;;
2656;SDS011;1338;48.176;11.792;2023-07-30T05:01:12;4.00;;;3.60;;
2656;SDS011;1338;48.176;11.792;2023-07-30T05:03:42;3.80;;;3.50;;
2656;SDS011;1338;48.176;11.792;2023-07-30T05:06:10;3.47;;;3.17;;
2656;SDS011;1338;48.176;11.792;2023-07-30T05:08:38;5.33;;;3.50;;
2656;SDS011;1338;48.176;11.792;2023-07-30T05:11:06;3.70;;;3.40;;
2656;SDS011;1338;48.176;11.792;2023-07-30T05:13:34;4.17;;;3.87;;
2656;SDS011;1338;48.176;11.792;2023-07-30T05:16:03;3.93;;;3.53;;
2656;SDS011;1338;48.176;11.792;2023-07-30T05:18:31;4.00;;;3.70;;
2656;SDS011;1338;48.176;11.792;2023-07-30T05:21:00;4.13;;;3.83;;
2656;SDS011;1338;48.176;11.792;2023-07-30T05:23:29;4.30;;;3.90;;
2656;SDS011;1338;48.176;11.792;2023-07-30T05:25:57;3.73;;;3.43;;
2656;SDS011;1338;48.176;11.792;2023-07-30T05:28:25;3.80;;;3.50;;
2656;SDS011;1338;48.176;11.792;2023-07-30T05:30:53;3.17;;;2.97;;
2656;SDS011;1338;48.176;11.792;2023-07-30T05:33:22;3.70;;;3.40;;
2656;SDS011;1338;48.176;11.792;2023-07-30T05:35:50;3.80;;;3.50;;
2656;SDS011;1338;48.176;11.792;2023-07-30T05:38:19;3.90;;;3.40;;
2656;SDS011;1338;48.176;11.792;2023-07-30T05:40:47;4.07;;;3.77;;
2656;SDS011;1338;48.176;11.792;2023-07-30T05:43:15;3.63;;;3.33;;
2656;SDS011;1338;48.176;11.792;2023-07-30T05:45:43;4.07;;;3.67;;
2656;SDS011;1338;48.176;11.792;2023-07-30T05:48:12;3.40;;;3.10;;
2656;SDS011;1338;48.176;11.792;2023-07-30T05:50:40;3.33;;;2.90;;
2656;SDS011;1338;48.176;11.792;2023-07-30T05:53:08;3.93;;;3.30;;
2656;SDS011;1338;48.176;11.792;2023-07-30T05:55:37;3.30;;;3.00;;
2656;SDS011;1338;48.176;11.792;2023-07-30T05:58:05;3.40;;;3.10;;
2656;SDS011;1338;48.176;11.792;2023-07-30T06:00:34;3.80;;;3.50;;
2656;SDS011;1338;48.176;11.792;2023-07-30T06:03:03;3.90;;;3.60;;
2656;SDS011;1338;48.176;11.792;2023-07-30T06:05:32;3.00;;;2.80;;
2656;SDS011;1338;48.176;11.792;2023-07-30T06:08:00;2.77;;;2.57;;
2656;SDS011;1338;48.176;11.792;2023-07-30T06:10:33;3.60;;;3.30;;
2656;SDS011;1338;48.176;11.792;2023-07-30T06:13:03;3.50;;;3.20;;
2656;SDS011;1338;48.176;11.792;2023-07-30T06:15:32;2.90;;;2.70;;
2656;SDS011;1338;48.176;11.792;2023-07-30T06:18:01;3.40;;;3.20;;
2656;SDS011;1338;48.176;11.792;2023-07-30T06:20:29;3.07;;;2.87;;
2656;SDS011;1338;48.176;11.792;2023-07-30T06:22:57;3.13;;;2.93;;
2656;SDS011;1338;48.176;11.792;2023-07-30T06:25:26;3.67;;;3.37;;
2656;SDS011;1338;48.176;11.792;2023-07-30T06:27:54;3.27;;;2.97;;
2656;SDS011;1338;48.176;11.792;2023-07-30T06:30:25;3.33;;;3.10;;
2656;SDS011;1338;48.176;11.792;2023-07-30T06:32:53;2.70;;;2.50;;
2656;SDS011;1338;48.176;11.792;2023-07-30T06:35:21;3.33;;;3.03;;
2656;SDS011;1338;48.176;11.792;2023-07-30T06:37:50;2.93;;;2.73;;
2656;SDS011;1338;48.176;11.792;2023-07-30T06:40:18;3.40;;;3.10;;
2656;SDS011;1338;48.176;11.792;2023-07-30T06:42:46;2.87;;;2.67;;
2656;SDS011;1338;48.176;11.792;2023-07-30T06:45:14;3.13;;;2.93;;
2656;SDS011;1338;48.176;11.792;2023-07-30T06:47:44;3.10;;;2.80;;
2656;SDS011;1338;48.176;11.792;2023-07-30T06:50:12;3.07;;;2.77;;
2656;SDS011;1338;48.176;11.792;2023-07-30T06:52:40;2.97;;;2.77;;
2656;SDS011;1338;48.176;11.792;2023-07-30T06:55:08;2.90;;;2.70;;
2656;SDS011;1338;48.176;11.792;2023-07-30T06:57:36;3.23;;;2.93;;
2656;SDS011;1338;48.176;11.792;2023-07-30T07:00:05;2.87;;;2.67;;
2656;SDS011;1338;48.176;11.792;2023-07-30T07:02:34;2.87;;;2.67;;
2656;SDS011;1338;48.176;11.792;2023-07-30T07:05:04;2.93;;;2.73;;
2656;SDS011;1338;48.176;11.792;2023-07-30T07:07:33;2.97;;;2.70;;
2656;SDS011;1338;48.176;11.792;2023-07-30T07:10:01;2.90;;;2.70;;
2656;SDS011;1338;48.176;11.792;2023-07-30T07:12:29;3.00;;;2.80;;
2656;SDS011;1338;48.176;11.792;2023-07-30T07:14:57;3.10;;;2.90;;
2656;SDS011;1338;48.176;11.792;2023-07-30T07:17:28;3.10;;;2.90;;
2656;SDS011;1338;48.176;11.792;2023-07-30T07:19:56;3.37;;;3.17;;
2656;SDS011;1338;48.176;11.792;2023-07-30T07:22:26;2.93;;;2.73;;
2656;SDS011;1338;48.176;11.792;2023-07-30T07:24:54;2.87;;;2.63;;
2656;SDS011;1338;48.176;11.792;2023-07-30T07:27:22;3.00;;;2.70;;
2656;SDS011;1338;48.176;11.792;2023-07-30T07:29:50;2.87;;;2.67;;
2656;SDS011;1338;48.176;11.792;2023-07-30T07:32:19;2.73;;;2.53;;
2656;SDS011;1338;48.176;11.792;2023-07-30T07:34:47;3.03;;;2.83;;
2656;SDS011;1338;48.176;11.792;2023-07-30T07:37:16;3.20;;;2.90;;
2656;SDS011;1338;48.176;11.792;2023-07-30T07:39:47;3.17;;;2.97;;
2656;SDS011;1338;48.176;11.792;2023-07-30T07:42:16;2.80;;;2.60;;
2656;SDS011;1338;48.176;11.792;2023-07-30T07:44:44;2.80;;;2.60;;
2656;SDS011;1338;48.176;11.792;2023-07-30T07:47:13;2.80;;;2.60;;
2656;SDS011;1338;48.176;11.792;2023-07-30T07:49:41;2.83;;;2.63;;
2656;SDS011;1338;48.176;11.792;2023-07-30T07:52:09;2.40;;;2.20;;
2656;SDS011;1338;48.176;11.792;2023-07-30T07:54:37;2.80;;;2.60;;
2656;SDS011;1338;48.176;11.792;2023-07-30T07:57:09;2.87;;;2.60;;
2656;SDS011;1338;48.176;11.792;2023-07-30T07:59:37;3.00;;;2.80;;
2656;SDS011;1338;48.176;11.792;2023-07-30T08:02:05;3.17;;;2.90;;
2656;SDS011;1338;48.176;11.792;2023-07-30T08:04:33;2.63;;;2.43;;
2656;SDS011;1338;48.176;11.792;2023-07-30T08:07:02;3.40;;;2.90;;
2656;SDS011;1338;48.176;11.792;2023-07-30T08:09:31;2.90;;;2.70;;
2656;SDS011;1338;48.176;11.792;2023-07-30T08:11:59;2.90;;;2.50;;
2656;SDS011;1338;48.176;11.792;2023-07-30T08:14:29;2.90;;;2.70;;
2656;SDS011;1338;48.176;11.792;2023-07-30T08:16:57;3.13;;;2.93;;
2656;SDS011;1338;48.176;11.792;2023-07-30T08:19:26;3.27;;;2.97;;
2656;SDS011;1338;48.176;11.792;2023-07-30T08:21:55;2.83;;;2.63;;
2656;SDS011;1338;48.176;11.792;2023-07-30T08:24:24;3.10;;;2.90;;
2656;SDS011;1338;48.176;11.792;2023-07-30T08:26:54;3.10;;;2.80;;
2656;SDS011;1338;48.176;11.792;2023-07-30T08:29:22;2.90;;;2.70;;
2656;SDS011;1338;48.176;11.792;2023-07-30T08:31:52;2.97;;;2.77;;
2656;SDS011;1338;48.176;11.792;2023-07-30T08:34:21;3.10;;;2.90;;
2656;SDS011;1338;48.176;11.792;2023-07-30T08:36:50;3.27;;;2.97;;
2656;SDS011;1338;48.176;11.792;2023-07-30T08:39:19;2.97;;;2.73;;
2656;SDS011;1338;48.176;11.792;2023-07-30T08:41:48;2.83;;;2.63;;
2656;SDS011;1338;48.176;11.792;2023-07-30T08:44:17;2.80;;;2.60;;
2656;SDS011;1338;48.176;11.792;2023-07-30T08:46:46;2.60;;;2.40;;
2656;SDS011;1338;48.176;11.792;2023-07-30T08:49:17;2.90;;;2.70;;
2656;SDS011;1338;48.176;11.792;2023-07-30T08:51:46;2.93;;;2.73;;
2656;SDS011;1338;48.176;11.792;2023-07-30T08:54:22;2.77;;;2.50;;
2656;SDS011;1338;48.176;11.792;2023-07-30T08:56:51;2.70;;;2.50;;
2656;SDS011;1338;48.176;11.792;2023-07-30T08:59:20;3.00;;;2.73;;
2656;SDS011;1338;48.176;11.792;2023-07-30T09:01:51;2.90;;;2.57;;
2656;SDS011;1338;48.176;11.792;2023-07-30T09:04:25;2.90;;;2.70;;
2656;SDS011;1338;48.176;11.792;2023-07-30T09:06:54;2.93;;;2.73;;
2656;SDS011;1338;48.176;11.792;2023-07-30T09:09:23;2.60;;;2.40;;
2656;SDS011;1338;48.176;11.792;2023-07-30T09:11:52;2.37;;;2.17;;
2656;SDS011;1338;48.176;11.792;2023-07-30T09:14:21;3.13;;;2.83;;
2656;SDS011;1338;48.176;11.792;2023-07-30T09:16:53;3.03;;;2.80;;
2656;SDS011;1338;48.176;11.792;2023-07-30T09:19:26;2.80;;;2.60;;
2656;SDS011;1338;48.176;11.792;2023-07-30T09:21:55;2.90;;;2.70;;
2656;SDS011;1338;48.176;11.792;2023-07-30T09:24:24;2.93;;;2.63;;
2656;SDS011;1338;48.176;11.792;2023-07-30T09:26:53;2.97;;;2.77;;
2656;SDS011;1338;48.176;11.792;2023-07-30T09:29:23;2.77;;;2.57;;
2656;SDS011;1338;48.176;11.792;2023-07-30T09:31:52;2.83;;;2.63;;
2656;SDS011;1338;48.176;11.792;2023-07-30T09:34:23;2.67;;;2.47;;
2656;SDS011;1338;48.176;11.792;2023-07-30T09:36:54;2.43;;;2.27;;
2656;SDS011;1338;48.176;11.792;2023-07-30T09:39:24;2.60;;;2.40;;
2656;SDS011;1338;48.176;11.792;2023-07-30T09:41:58;2.90;;;2.70;;
2656;SDS011;1338;48.176;11.792;2023-07-30T09:44:29;2.83;;;2.63;;
2656;SDS011;1338;48.176;11.792;2023-07-30T09:47:00;2.57;;;2.37;;
2656;SDS011;1338;48.176;11.792;2023-07-30T09:49:32;3.03;;;2.83;;
2656;SDS011;1338;48.176;11.792;2023-07-30T09:52:04;2.80;;;2.60;;
2656;SDS011;1338;48.176;11.792;2023-07-30T09:54:33;2.80;;;2.60;;
2656;SDS011;1338;48.176;11.792;2023-07-30T09:57:02;2.47;;;2.27;;
2656;SDS011;1338;48.176;11.792;2023-07-30T09:59:32;2.80;;;2.60;;
2656;SDS011;1338;48.176;11.792;2023-07-30T10:02:01;2.80;;;2.60;;
2656;SDS011;1338;48.176;11.792;2023-07-30T10:04:30;2.80;;;2.60;;
2656;SDS011;1338;48.176;11.792;2023-07-30T10:07:01;2.67;;;2.47;;
2656;SDS011;1338;48.176;11.792;2023-07-30T10:09:37;2.80;;;2.60;;
2656;SDS011;1338;48.176;11.792;2023-07-30T10:12:10;2.70;;;2.50;;
2656;SDS011;1338;48.176;11.792;2023-07-30T10:14:43;2.70;;;2.50;;
2656;SDS011;1338;48.176;11.792;2023-07-30T10:17:12;2.57;;;2.37;;
2656;SDS011;1338;48.176;11.792;2023-07-30T10:19:41;2.63;;;2.43;;
2656;SDS011;1338;48.176;11.792;2023-07-30T10:22:22;3.00;;;2.80;;
2656;SDS011;1338;48.176;11.792;2023-07-30T10:24:55;2.57;;;2.37;;
2656;SDS011;1338;48.176;11.792;2023-07-30T10:27:26;2.77;;;2.57;;
2656;SDS011;1338;48.176;11.792;2023-07-30T10:30:08;2.90;;;2.60;;
2656;SDS011;1338;48.176;11.792;2023-07-30T10:32:39;3.10;;;2.80;;
2656;SDS011;1338;48.176;11.792;2023-07-30T10:35:09;2.17;;;2.07;;
2656;SDS011;1338;48.176;11.792;2023-07-30T10:38:16;2.87;;;2.67;;
2656;SDS011;1338;48.176;11.792;2023-07-30T10:41:00;2.60;;;2.40;;
2656;SDS011;1338;48.176;11.792;2023-07-30T10:43:29;2.70;;;2.50;;
2656;SDS011;1338;48.176;11.792;2023-07-30T10:46:01;2.50;;;2.30;;
2656;SDS011;1338;48.176;11.792;2023-07-30T10:48:31;2.60;;;2.40;;
2656;SDS011;1338;48.176;11.792;2023-07-30T10:51:01;1.90;;;1.80;;
2656;SDS011;1338;48.176;11.792;2023-07-30T10:53:32;2.87;;;2.60;;
2656;SDS011;1338;48.176;11.792;2023-07-30T10:56:03;2.33;;;2.20;;
2656;SDS011;1338;48.176;11.792;2023-07-30T10:58:33;2.93;;;2.73;;
2656;SDS011;1338;48.176;11.792;2023-07-30T11:01:06;2.70;;;2.50;;
2656;SDS011;1338;48.176;11.792;2023-07-30T11:03:36;2.70;;;2.50;;
2656;SDS011;1338;48.176;11.792;2023-07-30T11:06:05;2.90;;;2.70;;
2656;SDS011;1338;48.176;11.792;2023-07-30T11:08:46;2.80;;;2.60;;
2656;SDS011;1338;48.176;11.792;2023-07-30T11:11:18;2.57;;;2.37;;
2656;SDS011;1338;48.176;11.792;2023-07-30T11:13:49;2.70;;;2.50;;
2656;SDS011;1338;48.176;11.792;2023-07-30T11:16:18;3.00;;;2.80;;
2656;SDS011;1338;48.176;11.792;2023-07-30T11:18:49;2.80;;;2.60;;
2656;SDS011;1338;48.176;11.792;2023-07-30T11:21:19;2.70;;;2.50;;
2656;SDS011;1338;48.176;11.792;2023-07-30T11:23:50;2.57;;;2.37;;
2656;SDS011;1338;48.176;11.792;2023-07-30T11:26:19;2.60;;;2.40;;
2656;SDS011;1338;48.176;11.792;2023-07-30T11:28:48;2.70;;;2.50;;
2656;SDS011;1338;48.176;11.792;2023-07-30T11:31:18;2.43;;;2.30;;
2656;SDS011;1338;48.176;11.792;2023-07-30T11:33:49;2.90;;;2.70;;
2656;SDS011;1338;48.176;11.792;2023-07-30T11:36:20;2.77;;;2.57;;
2656;SDS011;1338;48.176;11.792;2023-07-30T11:38:51;2.73;;;2.53;;
2656;SDS011;1338;48.176;11.792;2023-07-30T11:41:20;2.40;;;2.20;;
2656;SDS011;1338;48.176;11.792;2023-07-30T11:43:58;2.30;;;2.13;;
2656;SDS011;1338;48.176;11.792;2023-07-30T11:46:27;5.40;;;2.70;;
2656;SDS011;1338;48.176;11.792;2023-07-30T11:49:10;2.80;;;2.60;;
2656;SDS011;1338;48.176;11.792;2023-07-30T11:51:41;2.70;;;2.50;;
2656;SDS011;1338;48.176;11.792;2023-07-30T11:54:22;2.70;;;2.50;;
2656;SDS011;1338;48.176;11.792;2023-07-30T11:56:53;2.93;;;2.73;;
2656;SDS011;1338;48.176;11.792;2023-07-30T11:59:22;2.40;;;2.30;;
2656;SDS011;1338;48.176;11.792;2023-07-30T12:01:51;2.33;;;2.20;;
2656;SDS011;1338;48.176;11.792;2023-07-30T12:04:20;2.60;;;2.40;;
2656;SDS011;1338;48.176;11.792;2023-07-30T12:06:52;2.23;;;2.13;;
2656;SDS011;1338;48.176;11.792;2023-07-30T12:09:23;2.97;;;2.77;;
2656;SDS011;1338;48.176;11.792;2023-07-30T12:11:54;2.80;;;2.60;;
2656;SDS011;1338;48.176;11.792;2023-07-30T12:14:25;2.60;;;2.40;;
2656;SDS011;1338;48.176;11.792;2023-07-30T12:16:57;2.60;;;2.40;;
2656;SDS011;1338;48.176;11.792;2023-07-30T12:19:26;2.43;;;2.33;;
2656;SDS011;1338;48.176;11.792;2023-07-30T12:21:55;2.80;;;2.60;;
2656;SDS011;1338;48.176;11.792;2023-07-30T12:24:25;2.90;;;2.60;;
2656;SDS011;1338;48.176;11.792;2023-07-30T12:26:53;2.17;;;2.07;;
2656;SDS011;1338;48.176;11.792;2023-07-30T12:29:21;2.20;;;2.10;;
2656;SDS011;1338;48.176;11.792;2023-07-30T12:31:51;2.80;;;2.60;;
2656;SDS011;1338;48.176;11.792;2023-07-30T12:34:23;2.13;;;2.00;;
2656;SDS011;1338;48.176;11.792;2023-07-30T12:36:52;2.80;;;2.60;;
2656;SDS011;1338;48.176;11.792;2023-07-30T12:39:20;2.40;;;2.30;;
2656;SDS011;1338;48.176;11.792;2023-07-30T12:41:50;2.97;;;2.47;;
2656;SDS011;1338;48.176;11.792;2023-07-30T12:44:20;2.53;;;2.33;;
2656;SDS011;1338;48.176;11.792;2023-07-30T12:46:49;2.60;;;2.47;;
2656;SDS011;1338;48.176;11.792;2023-07-30T12:49:17;2.70;;;2.50;;
2656;SDS011;1338;48.176;11.792;2023-07-30T12:51:45;2.70;;;2.50;;
2656;SDS011;1338;48.176;11.792;2023-07-30T12:54:14;3.23;;;2.60;;
2656;SDS011;1338;48.176;11.792;2023-07-30T12:56:43;2.57;;;2.37;;
2656;SDS011;1338;48.176;11.792;2023-07-30T12:59:13;2.80;;;2.50;;
2656;SDS011;1338;48.176;11.792;2023-07-30T13:01:41;2.53;;;2.33;;
2656;SDS011;1338;48.176;11.792;2023-07-30T13:04:14;2.70;;;2.50;;
2656;SDS011;1338;48.176;11.792;2023-07-30T13:06:42;2.97;;;2.77;;
2656;SDS011;1338;48.176;11.792;2023-07-30T13:09:11;2.60;;;2.40;;
2656;SDS011;1338;48.176;11.792;2023-07-30T13:11:40;2.93;;;2.73;;
2656;SDS011;1338;48.176;11.792;2023-07-30T13:14:09;2.77;;;2.57;;
2656;SDS011;1338;48.176;11.792;2023-07-30T13:16:38;2.50;;;2.30;;
2656;SDS011;1338;48.176;11.792;2023-07-30T13:19:07;2.80;;;2.60;;
2656;SDS011;1338;48.176;11.792;2023-07-30T13:21:35;2.83;;;2.63;;
2656;SDS011;1338;48.176;11.792;2023-07-30T13:24:04;2.73;;;2.53;;
2656;SDS011;1338;48.176;11.792;2023-07-30T13:26:32;3.20;;;3.00;;
2656;SDS011;1338;48.176;11.792;2023-07-30T13:29:02;2.97;;;2.60;;
2656;SDS011;1338;48.176;11.792;2023-07-30T13:31:30;3.50;;;3.00;;
2656;SDS011;1338;48.176;11.792;2023-07-30T13:34:00;2.63;;;2.43;;
2656;SDS011;1338;48.176;11.792;2023-07-30T13:36:29;2.97;;;2.77;;
2656;SDS011;1338;48.176;11.792;2023-07-30T13:38:57;3.10;;;2.90;;
2656;SDS011;1338;48.176;11.792;2023-07-30T13:41:27;2.80;;;2.60;;
2656;SDS011;1338;48.176;11.792;2023-07-30T13:43:55;2.47;;;2.27;;
2656;SDS011;1338;48.176;11.792;2023-07-30T13:46:24;2.90;;;2.70;;
2656;SDS011;1338;48.176;11.792;2023-07-30T13:48:52;2.80;;;2.60;;
2656;SDS011;1338;48.176;11.792;2023-07-30T13:51:22;2.90;;;2.70;;
2656;SDS011;1338;48.176;11.792;2023-07-30T13:53:51;2.57;;;2.47;;
2656;SDS011;1338;48.176;11.792;2023-07-30T13:56:19;2.60;;;2.40;;
2656;SDS011;1338;48.176;11.792;2023-07-30T13:58:48;2.83;;;2.60;;
2656;SDS011;1338;48.176;11.792;2023-07-30T14:01:17;3.10;;;2.90;;
2656;SDS011;1338;48.176;11.792;2023-07-30T14:03:45;2.83;;;2.63;;
2656;SDS011;1338;48.176;11.792;2023-07-30T14:06:13;2.90;;;2.70;;
2656;SDS011;1338;48.176;11.792;2023-07-30T14:08:43;3.10;;;2.90;;
2656;SDS011;1338;48.176;11.792;2023-07-30T14:11:12;3.83;;;2.93;;
2656;SDS011;1338;48.176;11.792;2023-07-30T14:13:41;2.93;;;2.73;;
2656;SDS011;1338;48.176;11.792;2023-07-30T14:16:09;3.57;;;3.27;;
2656;SDS011;1338;48.176;11.792;2023-07-30T14:18:38;2.70;;;2.50;;
2656;SDS011;1338;48.176;11.792;2023-07-30T14:21:06;2.93;;;2.73;;
2656;SDS011;1338;48.176;11.792;2023-07-30T14:23:35;2.93;;;2.73;;
2656;SDS011;1338;48.176;11.792;2023-07-30T14:26:05;3.00;;;2.80;;
2656;SDS011;1338;48.176;11.792;2023-07-30T14:28:33;2.87;;;2.67;;
2656;SDS011;1338;48.176;11.792;2023-07-30T14:31:01;3.43;;;3.23;;
2656;SDS011;1338;48.176;11.792;2023-07-30T14:33:31;2.60;;;2.40;;
2656;SDS011;1338;48.176;11.792;2023-07-30T14:35:59;2.77;;;2.57;;
2656;SDS011;1338;48.176;11.792;2023-07-30T14:38:29;2.30;;;2.10;;
2656;SDS011;1338;48.176;11.792;2023-07-30T14:41:00;2.40;;;2.20;;
2656;SDS011;1338;48.176;11.792;2023-07-30T14:43:30;2.50;;;2.30;;
2656;SDS011;1338;48.176;11.792;2023-07-30T14:45:58;2.93;;;2.73;;
2656;SDS011;1338;48.176;11.792;2023-07-30T14:48:27;2.93;;;2.63;;
2656;SDS011;1338;48.176;11.792;2023-07-30T14:50:56;2.60;;;2.40;;
2656;SDS011;1338;48.176;11.792;2023-07-30T14:53:24;2.70;;;2.50;;
2656;SDS011;1338;48.176;11.792;2023-07-30T14:55:53;2.93;;;2.73;;
2656;SDS011;1338;48.176;11.792;2023-07-30T14:58:21;2.90;;;2.70;;
2656;SDS011;1338;48.176;11.792;2023-07-30T15:00:51;2.50;;;2.30;;
2656;SDS011;1338;48.176;11.792;2023-07-30T15:03:21;2.90;;;2.70;;
2656;SDS011;1338;48.176;11.792;2023-07-30T15:05:49;2.97;;;2.70;;
2656;SDS011;1338;48.176;11.792;2023-07-30T15:08:19;2.80;;;2.60;;
2656;SDS011;1338;48.176;11.792;2023-07-30T15:10:47;2.70;;;2.50;;
2656;SDS011;1338;48.176;11.792;2023-07-30T15:13:15;2.80;;;2.60;;
2656;SDS011;1338;48.176;11.792;2023-07-30T15:15:44;2.97;;;2.67;;